Flight Track Log - Related Links

Times and Time Zones

All times are in EDT time to prevent confusion due to time zone crossing. See the N449ND flight status page for this flight to view local times or setup timezone preferences in your user account.

Time Position Orientation Groundspeed Altitude Reporting Facility
EDT Latitude Longitude Course Direction KTS MPH feet Rate Location/Type
Wed 11:04:38 PM 28.4333 -81.2667 90° East 76 87 1,000  Level Orlando TRACON
Wed 11:05:38 PM 28.4333 -81.2333 90° East 81 93 1,500 300 Climbing Orlando TRACON
Wed 11:06:38 PM 28.4333 -81.2167 90° East 92 106 1,600 250 Climbing Orlando TRACON
Wed 11:07:38 PM 28.4333 -81.1833 90° East 90 104 2,000 397 Climbing Orlando TRACON
Wed 11:08:39 PM 28.4333 -81.1500 90° East 84 97 2,400 298 Climbing Orlando TRACON
Wed 11:09:39 PM 28.4333 -81.1167 90° East 100 115 2,600 50 Climbing Orlando TRACON
Wed 11:10:39 PM 28.4333 -81.0833 90° East 120 138 2,500 -48 Descending Orlando TRACON
Wed 11:11:45 PM 28.4333 -81.0500 90° East 112 129 2,500 -100 Level Orlando TRACON
Wed 11:12:39 PM 28.4000 -81.0333 156° South 116 133 2,300 -53 Descending Orlando TRACON
Wed 11:13:39 PM 28.3833 -81.0167 139° Southeast 107 123 2,400 100 Climbing Orlando TRACON
Wed 11:14:39 PM 28.3500 -80.9833 139° Southeast 108 124 2,500 100 Climbing Orlando TRACON
Wed 11:15:39 PM 28.3333 -80.9667 139° Southeast 107 123 2,600  Climbing Orlando TRACON
Wed 11:16:39 PM 28.3167 -80.9500 139° Southeast 114 131 2,500 -50 Descending Orlando TRACON
Wed 11:17:39 PM 28.2833 -80.9167 139° Southeast 114 131 2,500 -50 Level Orlando TRACON
Wed 11:18:39 PM 28.2500 -80.9000 156° South 114 131 2,400  Descending Orlando TRACON
Wed 11:19:39 PM 28.2333 -80.9000 180° South 110 127 2,500  Climbing Orlando TRACON
Wed 11:20:39 PM 28.2000 -80.8667 139° Southeast 111 128 2,400 -99 Descending Orlando TRACON
Wed 11:21:40 PM 28.1667 -80.8500 156° South 114 131 2,300 -50 Descending Orlando TRACON
Wed 11:22:40 PM 28.1500 -80.8500 180° South 108 124 2,300 50 Level Orlando TRACON
Wed 11:23:40 PM 28.1167 -80.8333 156° South 111 128 2,400 50 Climbing Orlando TRACON
Wed 11:24:40 PM 28.1000 -80.8167 139° Southeast 107 123 2,400 50 Level Orlando TRACON
Wed 11:25:40 PM 28.0667 -80.7833 139° Southeast 108 124 2,500 100 Climbing Orlando TRACON
Wed 11:26:40 PM 28.0500 -80.7667 139° Southeast 105 121 2,600 100 Climbing Orlando TRACON
Wed 11:27:40 PM 28.0167 -80.7500 156° South 106 122 2,700 150 Climbing Orlando TRACON
Wed 11:28:40 PM 28.0000 -80.7333 139° Southeast 107 123 2,900 100 Climbing Orlando TRACON
Wed 11:29:40 PM 27.9667 -80.7167 156° South 114 131 2,900 50 Level Orlando TRACON
Wed 11:30:40 PM 27.9500 -80.7000 139° Southeast 109 125 3,000 150 Climbing Orlando TRACON
Wed 11:31:40 PM 27.9333 -80.6833 139° Southeast 111 128 3,200 200 Climbing Orlando TRACON
Wed 11:33:00 PM 27.8951 -80.6679 148° Southeast  Level FlightAware Approximate
Wed 11:40:00 PM 27.7207 -80.5431 148° Southeast  Level FlightAware Approximate
Wed 11:41:00 PM 27.6958 -80.5253 148° Southeast  Level FlightAware Approximate
Wed 11:42:00 PM 27.6709 -80.5076 148° Southeast  Level FlightAware Approximate
Wed 11:43:00 PM 27.6459 -80.4898 148° Southeast  Level FlightAware Approximate
Wed 11:44:00 PM 27.6210 -80.4720 148° Southeast  Level FlightAware Approximate
Wed 11:45:00 PM 27.5961 -80.4542 148° Southeast  Level FlightAware Approximate
Wed 11:46:00 PM 27.5711 -80.4365 148° Southeast  Level FlightAware Approximate
Wed 11:47:00 PM 27.5484 -80.4155 146° Southeast  Level FlightAware Approximate
Wed 11:48:00 PM 27.5238 -80.3970 146° Southeast  Level FlightAware Approximate
Wed 11:49:00 PM 27.4993 -80.3786 146° Southeast  Level FlightAware Approximate
Wed 11:50:00 PM 27.4975 -80.3726 146° Southeast  Level Estimated
Wed 11:51:00 PM 27.4975 -80.3726 159° South  Level Estimated
Wed 11:52:00 PM 27.4975 -80.3726 159° South  Level Estimated
Wed 11:53:00 PM 27.4975 -80.3726 146° Southeast  Level Estimated
Wed 11:54:00 PM 27.4975 -80.3726 159° South  Level Estimated
Wed 11:55:00 PM 27.4975 -80.3726 159° South  Level Estimated
Wed 11:56:00 PM 27.4975 -80.3726 146° Southeast  Level Estimated
Wed 11:57:00 PM 27.4975 -80.3726 159° South  Level Estimated
Wed 11:58:00 PM 27.4975 -80.3726 159° South  Level Estimated
Wed 11:59:00 PM 27.4975 -80.3726 146° Southeast  Level Estimated
Thu 12:00:00 AM 27.4975 -80.3726 159° South  Level Estimated
Thu 12:01:00 AM 27.4975 -80.3726 159° South  Level Estimated
Thu 12:02:00 AM 27.4975 -80.3726 146° Southeast  Level Estimated
Thu 12:03:00 AM 27.4975 -80.3726 159° South  Level Estimated
Thu 12:04:00 AM 27.4975 -80.3726 159° South  Level Estimated
Thu 12:05:00 AM 27.4975 -80.3726 146° Southeast  Level Estimated
Thu 12:06:00 AM 27.4975 -80.3726 159° South  Level Estimated

Login

Don't have an account? Register now (free) for customized features, flight alerts, and more!